Time;durP1;ratioP1;P1;durP2;ratioP2;P2;SDS_P1;SDS_P2;PMS_P1;PMS_P2;Temp;Humidity;BMP_temperature;BMP_pressure;BME280_temperature;BME280_humidity;BME280_pressure;Samples;Min_cycle;Max_cycle;Signal;HPM_P1;HPM_P2
2022/04/13 00:01:34;;;;;;;2.65;2.38;;;2.60;99.90;;;;;;5103567;27;21128;-61
2022/04/13 00:04:13;;;;;;;1.92;1.77;;;2.60;99.90;;;;;;5083841;27;20633;-61
2022/04/13 00:06:53;;;;;;;1.80;1.70;;;2.50;99.90;;;;;;5104543;27;20968;-61
2022/04/13 00:09:32;;;;;;;1.90;1.70;;;2.40;99.90;;;;;;5146316;27;20538;-61
2022/04/13 00:12:12;;;;;;;2.15;2.05;;;2.30;99.90;;;;;;5085059;27;20585;-61
2022/04/13 00:14:52;;;;;;;2.15;1.98;;;2.10;99.90;;;;;;5075086;28;20596;-61
2022/04/13 00:17:33;;;;;;;2.05;1.80;;;2.00;99.90;;;;;;5084933;27;20551;-61
2022/04/13 00:20:13;;;;;;;2.10;1.90;;;1.90;99.90;;;;;;5105081;27;21144;-61
2022/04/13 00:22:53;;;;;;;1.85;1.52;;;2.00;99.90;;;;;;5084852;28;20566;-61
2022/04/13 00:25:33;;;;;;;2.70;1.95;;;2.00;99.90;;;;;;5105078;27;21219;-61
2022/04/13 00:28:25;;;;;;;6.60;1.90;;;1.90;99.90;;;;;;5134603;27;20569;-61
2022/04/13 00:31:05;;;;;;;2.17;1.80;;;1.90;99.90;;;;;;5084315;28;20550;-61
2022/04/13 00:33:44;;;;;;;2.67;1.73;;;1.80;99.90;;;;;;5084923;27;20577;-61
2022/04/13 00:36:24;;;;;;;2.25;2.05;;;1.80;99.90;;;;;;5146654;27;20673;-61
2022/04/13 00:39:04;;;;;;;1.83;1.73;;;1.70;99.90;;;;;;5085258;28;20599;-61
2022/04/13 00:41:44;;;;;;;6.03;2.78;;;1.70;99.90;;;;;;5085016;27;20624;-61
2022/04/13 00:44:28;;;;;;;2.47;2.10;;;1.70;99.90;;;;;;5084794;28;21211;-61
2022/04/13 00:47:08;;;;;;;1.80;1.70;;;1.60;99.90;;;;;;5084861;27;20551;-61
2022/04/13 00:49:48;;;;;;;1.83;1.73;;;1.50;99.90;;;;;;5084718;27;20573;-61
2022/04/13 00:52:29;;;;;;;2.25;2.00;;;1.40;99.90;;;;;;5084943;27;20573;-61
2022/04/13 00:55:10;;;;;;;2.08;1.98;;;1.40;99.90;;;;;;5072165;27;21021;-61
2022/04/13 00:57:51;;;;;;;2.15;1.95;;;1.40;99.90;;;;;;5069477;27;20560;-61
2022/04/13 01:00:34;;;;;;;1.63;1.52;;;1.30;99.90;;;;;;5125640;27;21080;-61
2022/04/13 01:03:14;;;;;;;1.80;1.70;;;1.30;99.90;;;;;;5105599;27;20557;-61
2022/04/13 01:05:54;;;;;;;2.13;1.77;;;1.30;99.90;;;;;;5105274;27;20914;-61
2022/04/13 01:08:34;;;;;;;2.10;1.92;;;1.30;99.90;;;;;;5125718;27;20548;-61
2022/04/13 01:11:15;;;;;;;2.10;1.90;;;1.20;99.90;;;;;;5104916;27;20567;-61
2022/04/13 01:13:56;;;;;;;2.92;1.88;;;1.20;99.90;;;;;;5105214;27;20541;-61
2022/04/13 01:16:39;;;;;;;1.85;1.75;;;1.20;99.90;;;;;;5085146;28;21040;-61
2022/04/13 01:19:19;;;;;;;2.00;1.90;;;1.20;99.90;;;;;;5105104;27;21043;-61
2022/04/13 01:22:03;;;;;;;3.05;1.98;;;1.20;99.90;;;;;;5117636;27;21121;-61
2022/04/13 01:24:42;;;;;;;2.63;1.90;;;1.20;99.90;;;;;;5152522;27;20561;-61
2022/04/13 01:27:22;;;;;;;1.90;1.80;;;1.10;99.90;;;;;;5105036;27;20542;-61
2022/04/13 01:30:01;;;;;;;1.90;1.80;;;1.10;99.90;;;;;;5104938;27;20568;-61
2022/04/13 01:32:41;;;;;;;2.33;2.08;;;1.10;99.90;;;;;;5105270;27;21070;-61
2022/04/13 01:35:23;;;;;;;3.17;2.00;;;1.10;99.90;;;;;;5070140;27;20705;-61
2022/04/13 01:38:02;;;;;;;2.92;1.98;;;1.10;99.90;;;;;;5085260;27;20564;-61
2022/04/13 01:40:44;;;;;;;2.45;2.25;;;1.30;99.90;;;;;;5084646;28;20553;-61
2022/04/13 01:43:24;;;;;;;5.07;2.70;;;1.30;99.90;;;;;;5083480;27;21118;-61
2022/04/13 01:46:05;;;;;;;4.85;4.45;;;1.20;99.90;;;;;;5069370;27;20567;-61
2022/04/13 01:48:45;;;;;;;5.55;5.05;;;1.20;99.90;;;;;;5084905;28;20568;-61
2022/04/13 01:51:25;;;;;;;3.45;3.15;;;1.10;99.90;;;;;;5105201;27;21035;-61
2022/04/13 01:54:05;;;;;;;2.40;2.20;;;1.00;99.90;;;;;;5101049;27;20563;-61
2022/04/13 01:56:45;;;;;;;2.60;2.40;;;0.90;99.90;;;;;;5085375;28;20556;-61
2022/04/13 01:59:25;;;;;;;2.97;2.15;;;0.90;99.90;;;;;;5085210;28;20676;-61
2022/04/13 02:02:05;;;;;;;2.28;2.13;;;0.90;99.90;;;;;;5105231;27;20553;-61
2022/04/13 02:04:44;;;;;;;2.85;2.65;;;0.80;99.90;;;;;;5084843;27;20633;-61
2022/04/13 02:07:24;;;;;;;2.13;2.00;;;0.80;99.90;;;;;;5085384;27;21125;-61
2022/04/13 02:10:05;;;;;;;2.50;2.30;;;0.80;99.90;;;;;;5084989;27;20565;-61
2022/04/13 02:12:47;;;;;;;2.13;2.03;;;0.70;99.90;;;;;;5105705;27;21033;-62
2022/04/13 02:15:27;;;;;;;2.30;1.83;;;0.70;99.90;;;;;;5104814;27;20549;-61
2022/04/13 02:18:07;;;;;;;3.80;2.05;;;0.70;99.90;;;;;;5135553;27;20905;-61
2022/04/13 02:20:46;;;;;;;3.45;2.05;;;0.70;99.90;;;;;;5084310;27;20581;-61
2022/04/13 02:23:26;;;;;;;2.00;1.90;;;0.70;99.90;;;;;;5084944;27;20551;-61
2022/04/13 02:26:06;;;;;;;3.05;2.20;;;0.60;99.90;;;;;;5105700;27;20572;-61
2022/04/13 02:28:46;;;;;;;2.35;2.05;;;0.60;99.90;;;;;;5105373;27;20566;-61
2022/04/13 02:31:25;;;;;;;4.35;2.20;;;0.50;99.90;;;;;;5084993;27;20573;-61
2022/04/13 02:34:06;;;;;;;2.70;2.25;;;0.50;99.90;;;;;;5101140;27;20559;-61
2022/04/13 02:36:46;;;;;;;2.40;2.20;;;0.50;99.90;;;;;;5105595;27;21037;-61
2022/04/13 02:39:25;;;;;;;2.70;2.50;;;0.50;99.90;;;;;;5104808;27;20550;-61
2022/04/13 02:42:05;;;;;;;3.60;2.33;;;0.70;99.90;;;;;;5085010;27;20572;-61
2022/04/13 02:44:45;;;;;;;2.30;2.10;;;0.60;99.90;;;;;;5075132;27;20591;-61
2022/04/13 02:47:24;;;;;;;2.10;1.90;;;0.60;99.90;;;;;;5125937;27;21227;-61
2022/04/13 02:50:06;;;;;;;5.65;2.63;;;0.60;99.90;;;;;;5104626;27;21102;-61
2022/04/13 02:52:46;;;;;;;2.08;1.90;;;0.50;99.90;;;;;;5085587;27;20562;-60
2022/04/13 02:55:26;;;;;;;3.10;2.10;;;0.50;99.90;;;;;;5105031;27;21043;-61
2022/04/13 02:58:06;;;;;;;2.30;2.10;;;0.40;99.90;;;;;;5084941;28;21087;-61
2022/04/13 03:00:47;;;;;;;2.72;2.03;;;0.40;99.90;;;;;;5125705;27;20544;-61
2022/04/13 03:03:27;;;;;;;2.33;2.10;;;0.40;99.90;;;;;;5126127;27;20897;-61
2022/04/13 03:06:06;;;;;;;2.17;1.98;;;0.40;99.90;;;;;;5126086;27;21024;-61
2022/04/13 03:08:46;;;;;;;2.70;2.50;;;0.40;99.90;;;;;;5106037;27;21070;-61
2022/04/13 03:11:26;;;;;;;2.30;2.10;;;0.40;99.90;;;;;;5084914;27;20539;-61
2022/04/13 03:14:06;;;;;;;3.38;2.30;;;0.40;99.90;;;;;;5105180;27;20566;-61
2022/04/13 03:16:46;;;;;;;2.08;1.90;;;0.30;99.90;;;;;;5105462;27;20678;-61
2022/04/13 03:19:25;;;;;;;4.03;2.38;;;0.20;99.90;;;;;;5105391;27;21012;-61
2022/04/13 03:22:05;;;;;;;2.55;2.28;;;0.20;99.90;;;;;;5085545;27;21320;-61
2022/04/13 03:24:45;;;;;;;2.38;2.17;;;0.10;99.90;;;;;;5075966;27;20570;-61
2022/04/13 03:27:25;;;;;;;2.40;2.20;;;0.20;99.90;;;;;;5130148;27;20678;-61
2022/04/13 03:30:06;;;;;;;2.28;2.08;;;0.20;99.90;;;;;;5084991;27;20561;-61
2022/04/13 03:32:46;;;;;;;2.60;2.40;;;0.10;99.90;;;;;;5085190;28;20544;-61
2022/04/13 03:35:26;;;;;;;2.58;2.38;;;0.10;99.90;;;;;;5084726;27;20566;-61
2022/04/13 03:38:06;;;;;;;6.43;2.20;;;0.10;99.90;;;;;;5106138;27;20571;-61
2022/04/13 03:40:46;;;;;;;4.07;2.33;;;0.20;99.90;;;;;;5085112;27;20568;-61
2022/04/13 03:43:27;;;;;;;2.65;2.45;;;0.20;99.90;;;;;;5084892;28;21099;-61
2022/04/13 03:46:07;;;;;;;2.85;2.50;;;0.20;99.90;;;;;;5095037;27;20574;-61
2022/04/13 03:48:47;;;;;;;2.33;1.95;;;0.20;99.90;;;;;;5084883;28;20568;-61
2022/04/13 03:51:27;;;;;;;3.00;2.70;;;0.20;99.90;;;;;;5154529;27;21199;-61
2022/04/13 03:54:07;;;;;;;3.05;2.70;;;0.10;99.90;;;;;;5084489;27;20994;-61
2022/04/13 03:56:46;;;;;;;2.92;2.35;;;0.10;99.90;;;;;;5105492;27;20558;-61
2022/04/13 03:59:26;;;;;;;3.55;2.45;;;0.20;99.90;;;;;;5126398;27;20540;-61
2022/04/13 04:02:06;;;;;;;4.32;2.78;;;0.20;99.90;;;;;;5085291;27;20588;-61
2022/04/13 04:04:46;;;;;;;5.82;3.15;;;0.20;99.90;;;;;;5075771;27;20634;-61
2022/04/13 04:07:25;;;;;;;6.00;3.28;;;0.20;99.90;;;;;;5105245;27;20971;-61
2022/04/13 04:10:07;;;;;;;3.85;3.50;;;0.20;99.90;;;;;;5084989;28;20553;-61
2022/04/13 04:12:47;;;;;;;6.57;3.08;;;0.10;99.90;;;;;;5125943;27;21025;-61
2022/04/13 04:15:27;;;;;;;3.13;2.80;;;0.20;99.90;;;;;;5089672;27;21100;-61
2022/04/13 04:18:07;;;;;;;3.97;2.85;;;0.20;99.90;;;;;;5084408;27;20581;-61
2022/04/13 04:20:46;;;;;;;3.45;2.85;;;0.20;99.90;;;;;;5084831;28;20542;-61
2022/04/13 04:23:26;;;;;;;3.20;2.95;;;0.10;99.90;;;;;;5085290;28;20561;-61
2022/04/13 04:26:06;;;;;;;3.15;2.83;;;0.10;99.90;;;;;;5105447;27;21006;-61
2022/04/13 04:28:46;;;;;;;5.93;3.25;;;0.10;99.90;;;;;;5085195;27;20548;-61
2022/04/13 04:34:19;;;;;;;4.60;3.55;;;0.10;99.90;;;;;;5073937;27;20599;-61
2022/04/13 04:37:00;;;;;;;3.55;3.25;;;0.20;99.90;;;;;;5085358;27;21068;-61
2022/04/13 04:39:39;;;;;;;3.92;3.58;;;0.30;99.90;;;;;;5085261;28;20870;-61
2022/04/13 04:42:19;;;;;;;4.40;4.07;;;0.40;99.90;;;;;;5085331;27;20569;-61
2022/04/13 04:45:00;;;;;;;3.85;3.30;;;0.40;99.90;;;;;;5085057;27;20573;-61
2022/04/13 04:47:39;;;;;;;5.90;3.83;;;0.50;99.90;;;;;;5085290;27;20585;-61
2022/04/13 04:50:20;;;;;;;5.40;3.78;;;0.70;99.90;;;;;;5140702;27;20679;-61
2022/04/13 04:53:03;;;;;;;6.50;4.10;;;0.90;99.90;;;;;;5126459;27;20572;-61
2022/04/13 04:55:42;;;;;;;4.45;4.05;;;1.00;99.90;;;;;;5125924;27;21161;-61
2022/04/13 04:58:21;;;;;;;4.55;4.20;;;1.20;99.90;;;;;;5105656;27;20551;-61
2022/04/13 05:01:01;;;;;;;3.42;3.15;;;1.40;99.90;;;;;;5125312;27;20544;-61
2022/04/13 05:03:43;;;;;;;5.18;4.55;;;1.60;99.90;;;;;;5105143;27;20539;-61
2022/04/13 05:06:28;;;;;;;3.75;3.45;;;1.70;99.90;;;;;;5084789;27;20584;-61
2022/04/13 05:09:07;;;;;;;5.43;4.05;;;1.90;99.90;;;;;;5085095;28;20671;-61
2022/04/13 05:11:47;;;;;;;4.55;3.97;;;2.10;99.90;;;;;;5085431;27;20572;-61
2022/04/13 05:14:29;;;;;;;4.32;3.85;;;2.30;99.90;;;;;;5084637;27;21092;-61
2022/04/13 05:17:08;;;;;;;4.30;3.55;;;2.50;99.90;;;;;;5105612;27;20562;-61
2022/04/13 05:19:48;;;;;;;3.83;3.53;;;2.70;99.90;;;;;;5105273;27;20574;-61
2022/04/13 05:22:28;;;;;;;7.28;3.38;;;2.90;99.90;;;;;;5086087;27;21076;-61
2022/04/13 05:25:10;;;;;;;8.85;3.92;;;3.10;99.90;;;;;;5105251;27;21139;-61
2022/04/13 05:27:49;;;;;;;6.80;3.38;;;3.20;99.90;;;;;;5085241;27;20562;-61
2022/04/13 05:30:29;;;;;;;8.35;3.05;;;3.30;99.90;;;;;;5084418;28;21068;-61
2022/04/13 05:33:09;;;;;;;8.00;3.58;;;3.40;99.90;;;;;;5084391;27;21130;-61
2022/04/13 05:35:49;;;;;;;5.18;3.25;;;3.50;99.90;;;;;;5084751;28;20567;-61
2022/04/13 05:38:31;;;;;;;9.48;3.58;;;3.70;99.90;;;;;;5147206;27;20550;-62
2022/04/13 05:41:13;;;;;;;6.30;4.25;;;3.80;99.90;;;;;;5083878;28;21256;-62
2022/04/13 05:43:53;;;;;;;8.23;3.70;;;4.00;99.90;;;;;;5104071;27;20681;-62
2022/04/13 05:46:34;;;;;;;6.65;3.53;;;4.20;99.90;;;;;;5104471;27;20614;-62
2022/04/13 05:49:13;;;;;;;11.80;8.10;;;4.40;99.90;;;;;;5103737;27;20674;-62
2022/04/13 05:51:52;;;;;;;17.15;8.73;;;4.60;99.90;;;;;;5083953;27;20601;-62
2022/04/13 05:54:32;;;;;;;7.60;4.70;;;4.80;99.90;;;;;;5096478;27;20601;-62
2022/04/13 05:57:12;;;;;;;6.95;5.50;;;4.90;99.90;;;;;;5084777;27;21348;-62
2022/04/13 05:59:53;;;;;;;6.22;5.40;;;5.00;99.90;;;;;;5104964;27;20564;-62
2022/04/13 06:02:34;;;;;;;5.90;4.72;;;5.30;99.90;;;;;;5085606;28;21009;-62
2022/04/13 06:05:13;;;;;;;7.63;5.22;;;5.50;99.90;;;;;;5071882;28;20568;-61
2022/04/13 06:07:54;;;;;;;5.35;4.85;;;5.80;99.90;;;;;;5085449;28;20676;-61
2022/04/13 06:10:34;;;;;;;5.65;4.97;;;6.10;99.90;;;;;;5104703;27;20551;-62
2022/04/13 06:13:14;;;;;;;5.82;5.28;;;6.40;99.90;;;;;;5105378;27;21263;-62
2022/04/13 06:15:54;;;;;;;5.85;5.05;;;6.70;99.90;;;;;;5085233;28;20680;-61
2022/04/13 06:18:34;;;;;;;5.80;5.28;;;7.20;99.90;;;;;;5152012;27;20552;-61
2022/04/13 06:21:14;;;;;;;5.20;4.75;;;7.40;99.90;;;;;;5084305;28;20547;-61
2022/04/13 06:23:53;;;;;;;7.35;5.90;;;7.70;99.90;;;;;;5147406;27;21047;-61
2022/04/13 06:26:33;;;;;;;6.57;5.43;;;8.10;99.90;;;;;;5105064;27;20575;-61
2022/04/13 06:29:13;;;;;;;11.55;5.60;;;8.40;99.90;;;;;;5137473;27;20845;-61
2022/04/13 06:31:53;;;;;;;9.38;5.93;;;8.60;99.90;;;;;;5084448;28;20544;-61
2022/04/13 06:34:33;;;;;;;6.38;5.78;;;8.80;99.90;;;;;;5097817;27;20563;-61
2022/04/13 06:37:13;;;;;;;10.30;6.75;;;9.00;99.90;;;;;;5084688;27;20573;-61
2022/04/13 06:39:52;;;;;;;8.50;6.45;;;9.20;99.90;;;;;;5084507;28;21095;-62
2022/04/13 06:42:35;;;;;;;7.90;7.10;;;9.50;99.90;;;;;;5085348;27;20600;-61
2022/04/13 06:45:15;;;;;;;7.75;6.90;;;9.70;99.90;;;;;;5071680;28;20693;-61
2022/04/13 06:47:55;;;;;;;7.63;7.03;;;9.90;99.90;;;;;;5105219;27;20545;-61
2022/04/13 06:50:35;;;;;;;7.22;6.57;;;10.10;99.90;;;;;;5084795;28;20671;-61
2022/04/13 06:53:17;;;;;;;7.00;6.30;;;10.30;99.90;;;;;;5084519;27;20574;-61
2022/04/13 06:55:56;;;;;;;7.13;6.40;;;10.30;99.90;;;;;;5077438;27;20591;-61
2022/04/13 06:58:36;;;;;;;8.60;7.55;;;10.40;99.90;;;;;;5099565;27;20585;-62
2022/04/13 07:01:16;;;;;;;6.63;6.07;;;10.60;99.90;;;;;;5083943;27;20552;-61
2022/04/13 07:03:56;;;;;;;7.78;6.93;;;10.70;99.90;;;;;;5083570;27;20544;-61
2022/04/13 07:06:35;;;;;;;7.65;6.90;;;10.80;99.90;;;;;;5083210;27;21122;-62
2022/04/13 07:09:15;;;;;;;9.38;5.22;;;10.80;99.90;;;;;;5082615;27;20577;-62
2022/04/13 07:11:55;;;;;;;10.95;6.65;;;10.90;99.90;;;;;;5083923;28;20684;-62
2022/04/13 07:14:35;;;;;;;11.57;6.90;;;11.00;99.90;;;;;;5075755;27;20570;-60
2022/04/13 07:17:15;;;;;;;7.88;7.18;;;11.20;99.90;;;;;;5120574;27;21056;-60
2022/04/13 07:19:55;;;;;;;7.03;6.40;;;11.40;99.90;;;;;;5082887;28;21145;-60
2022/04/13 07:22:47;;;;;;;7.97;6.35;;;11.60;99.90;;;;;;5084609;28;20616;-61
2022/04/13 07:25:26;;;;;;;6.75;5.95;;;11.80;99.90;;;;;;5068199;27;20579;-60
2022/04/13 07:28:06;;;;;;;7.32;6.63;;;11.90;99.90;;;;;;5144404;27;20538;-60
2022/04/13 07:30:46;;;;;;;7.13;6.45;;;12.00;99.90;;;;;;5083070;28;20668;-60
2022/04/13 07:33:26;;;;;;;6.35;5.75;;;12.10;99.90;;;;;;5150959;27;20902;-60
2022/04/13 07:36:06;;;;;;;7.30;6.70;;;12.20;99.90;;;;;;5122631;27;20540;-60
2022/04/13 07:38:45;;;;;;;7.47;5.32;;;12.30;99.90;;;;;;5076882;27;20563;-60
2022/04/13 07:41:25;;;;;;;8.07;5.65;;;12.50;99.90;;;;;;5098888;27;20602;-60
2022/04/13 07:44:06;;;;;;;7.15;6.20;;;12.60;99.90;;;;;;5078446;27;20595;-60
2022/04/13 07:46:45;;;;;;;7.22;6.53;;;12.80;99.90;;;;;;5081261;28;20571;-59
2022/04/13 07:49:25;;;;;;;7.00;6.30;;;12.80;99.90;;;;;;5081899;27;21018;-60
2022/04/13 07:52:05;;;;;;;5.95;5.45;;;12.90;99.90;;;;;;5121623;27;20548;-60
2022/04/13 07:54:45;;;;;;;8.18;6.15;;;12.80;99.90;;;;;;5092011;27;20555;-60
2022/04/13 07:57:24;;;;;;;6.18;5.68;;;12.90;99.90;;;;;;5103670;27;20546;-60
2022/04/13 08:00:04;;;;;;;5.72;5.13;;;12.90;99.90;;;;;;5080843;27;20681;-60
2022/04/13 08:02:45;;;;;;;6.47;5.22;;;12.90;99.90;;;;;;5083724;27;21044;-60
2022/04/13 08:05:23;;;;;;;5.38;4.88;;;13.00;99.90;;;;;;5077075;27;20572;-60
2022/04/13 08:08:04;;;;;;;6.50;5.53;;;13.20;99.90;;;;;;5176933;27;20561;-60
2022/04/13 08:10:45;;;;;;;6.80;5.53;;;13.30;99.90;;;;;;5103736;27;20553;-60
2022/04/13 08:13:25;;;;;;;6.00;4.95;;;13.60;99.90;;;;;;5104428;27;21086;-61
2022/04/13 08:16:05;;;;;;;5.55;5.07;;;13.80;99.90;;;;;;5083394;27;20539;-60
2022/04/13 08:18:45;;;;;;;6.43;5.13;;;14.10;99.70;;;;;;5125570;27;20544;-60
2022/04/13 08:21:24;;;;;;;6.70;4.65;;;14.30;98.70;;;;;;5084067;27;20743;-60
2022/04/13 08:24:04;;;;;;;6.15;5.65;;;14.50;96.50;;;;;;5081132;28;20701;-60
2022/04/13 08:26:44;;;;;;;5.75;5.25;;;14.70;94.40;;;;;;5084296;27;20616;-61
2022/04/13 08:29:25;;;;;;;7.57;5.47;;;14.80;92.00;;;;;;5105013;27;21168;-60
2022/04/13 08:32:04;;;;;;;8.73;4.85;;;14.90;91.40;;;;;;5116934;27;20547;-61
2022/04/13 08:34:43;;;;;;;6.60;5.22;;;15.00;92.20;;;;;;5096137;27;20560;-61
2022/04/13 08:37:24;;;;;;;5.47;4.97;;;15.10;91.60;;;;;;5084400;27;20589;-61
2022/04/13 08:40:05;;;;;;;5.95;5.45;;;15.10;90.10;;;;;;5083954;27;20560;-61
2022/04/13 08:42:47;;;;;;;6.03;5.53;;;15.10;87.00;;;;;;5105122;27;20561;-61
2022/04/13 08:45:32;;;;;;;6.70;6.13;;;15.00;90.10;;;;;;5125047;27;20548;-61
2022/04/13 08:48:18;;;;;;;7.03;4.82;;;15.20;89.80;;;;;;5084465;28;20581;-61
2022/04/13 08:50:59;;;;;;;6.50;4.82;;;15.50;89.60;;;;;;5124708;27;20539;-61
2022/04/13 08:53:44;;;;;;;4.55;3.95;;;15.70;82.90;;;;;;5084353;28;20543;-61
2022/04/13 08:56:24;;;;;;;4.53;4.13;;;16.00;83.20;;;;;;5084414;27;21005;-61
2022/04/13 08:59:12;;;;;;;6.07;5.47;;;16.20;79.30;;;;;;5104982;27;20563;-61
2022/04/13 09:01:59;;;;;;;10.68;5.25;;;16.30;76.80;;;;;;5125870;27;20540;-61
2022/04/13 09:04:43;;;;;;;4.85;4.45;;;16.40;73.90;;;;;;5084769;27;20559;-61
2022/04/13 09:07:27;;;;;;;5.43;4.93;;;16.40;73.90;;;;;;5105173;27;20955;-61
2022/04/13 09:10:14;;;;;;;6.30;5.10;;;16.60;73.00;;;;;;5104409;27;21032;-61
2022/04/13 09:12:54;;;;;;;6.65;4.03;;;16.70;71.60;;;;;;5105885;27;20567;-61
2022/04/13 09:15:34;;;;;;;4.68;4.05;;;16.80;67.40;;;;;;5084895;28;20592;-61
2022/04/13 09:18:14;;;;;;;5.22;4.72;;;17.00;65.40;;;;;;5085009;27;21018;-61
2022/04/13 09:20:53;;;;;;;7.63;4.75;;;17.30;68.40;;;;;;5145217;27;20539;-61
2022/04/13 09:23:33;;;;;;;5.18;4.65;;;17.40;64.10;;;;;;5085823;27;20568;-61
2022/04/13 09:26:15;;;;;;;5.45;4.95;;;17.70;69.90;;;;;;5084660;27;20568;-61
2022/04/13 09:28:54;;;;;;;7.70;4.43;;;17.70;64.70;;;;;;5085007;27;20554;-61
2022/04/13 09:31:36;;;;;;;5.05;4.65;;;17.70;66.10;;;;;;5084923;27;20539;-61
2022/04/13 09:34:15;;;;;;;5.80;5.03;;;17.80;62.70;;;;;;5100014;27;20555;-61
2022/04/13 09:36:56;;;;;;;8.82;5.45;;;18.00;63.00;;;;;;5084759;27;20554;-61
2022/04/13 09:39:38;;;;;;;7.25;5.60;;;18.20;60.50;;;;;;5084611;27;20561;-61
2022/04/13 09:42:19;;;;;;;5.60;4.95;;;18.30;60.90;;;;;;5105160;27;20558;-61
2022/04/13 09:45:02;;;;;;;5.55;5.07;;;18.30;59.20;;;;;;5084487;28;20580;-61
2022/04/13 09:47:47;;;;;;;7.28;4.70;;;18.40;59.10;;;;;;5105633;27;20571;-61
2022/04/13 09:50:27;;;;;;;4.90;4.40;;;18.40;58.60;;;;;;5084124;27;20547;-61
2022/04/13 09:53:09;;;;;;;5.18;4.05;;;18.60;59.20;;;;;;5084668;27;20573;-61
2022/04/13 09:55:50;;;;;;;5.72;5.22;;;18.50;57.50;;;;;;5104732;27;20576;-61
2022/04/13 09:58:30;;;;;;;5.32;4.82;;;18.20;58.20;;;;;;5105484;27;20534;-61
2022/04/13 10:01:10;;;;;;;5.13;4.72;;;18.40;57.80;;;;;;5104586;27;20558;-61
2022/04/13 10:03:56;;;;;;;6.82;5.47;;;18.60;57.40;;;;;;5084866;27;20570;-61
2022/04/13 10:06:36;;;;;;;6.22;4.28;;;18.50;56.10;;;;;;5125443;27;20540;-61
2022/04/13 10:09:16;;;;;;;5.13;4.53;;;18.80;57.10;;;;;;5084410;27;20569;-61
2022/04/13 10:12:03;;;;;;;5.90;5.00;;;18.90;57.00;;;;;;5125728;27;21068;-61
2022/04/13 10:14:42;;;;;;;5.15;4.63;;;19.10;54.60;;;;;;5105319;27;20603;-61
2022/04/13 10:17:22;;;;;;;4.47;3.83;;;19.10;54.40;;;;;;5143007;27;21292;-61
2022/04/13 10:20:01;;;;;;;4.47;3.50;;;19.10;53.40;;;;;;5124366;27;20543;-61
2022/04/13 10:22:59;;;;;;;4.60;4.20;;;19.00;54.00;;;;;;5084705;28;20668;-61
2022/04/13 10:25:39;;;;;;;4.45;4.05;;;19.30;54.80;;;;;;5146305;27;20542;-61
2022/04/13 10:28:25;;;;;;;4.10;3.72;;;19.50;51.70;;;;;;5105232;27;20578;-61
2022/04/13 10:31:09;;;;;;;6.43;4.50;;;19.80;51.70;;;;;;5084867;28;20667;-61
2022/04/13 10:33:49;;;;;;;4.15;3.75;;;19.80;51.30;;;;;;5105739;27;20549;-61
2022/04/13 10:36:29;;;;;;;4.47;4.07;;;19.70;51.10;;;;;;5085270;28;21034;-61
2022/04/13 10:39:09;;;;;;;4.40;3.95;;;19.70;51.60;;;;;;5084667;27;21092;-61
2022/04/13 10:41:49;;;;;;;4.35;3.92;;;19.70;52.20;;;;;;5085845;27;20574;-61
2022/04/13 10:44:34;;;;;;;4.15;3.72;;;19.70;50.40;;;;;;5084742;27;20593;-61
2022/04/13 10:47:19;;;;;;;4.47;4.07;;;19.90;53.00;;;;;;5084911;27;21138;-61
2022/04/13 10:50:02;;;;;;;4.65;3.97;;;20.30;51.90;;;;;;5084498;27;20573;-61
2022/04/13 10:52:51;;;;;;;3.63;3.30;;;20.30;49.10;;;;;;5085055;27;20573;-61
2022/04/13 10:55:33;;;;;;;4.68;3.22;;;20.50;48.90;;;;;;5096820;27;20546;-61
2022/04/13 10:58:22;;;;;;;6.63;3.33;;;20.70;47.40;;;;;;5085189;27;20566;-61
2022/04/13 11:01:05;;;;;;;4.30;3.47;;;20.80;47.20;;;;;;5084678;27;20566;-61
2022/04/13 11:03:44;;;;;;;4.57;3.58;;;20.60;47.30;;;;;;5085947;27;20570;-61
2022/04/13 11:06:24;;;;;;;4.57;3.60;;;20.60;46.90;;;;;;5084826;27;20569;-61
2022/04/13 11:09:07;;;;;;;3.33;3.05;;;20.60;46.20;;;;;;5125802;27;20536;-61
2022/04/13 11:11:49;;;;;;;3.42;3.13;;;20.80;44.30;;;;;;5126133;27;20566;-62
2022/04/13 11:14:28;;;;;;;4.28;3.67;;;20.90;45.90;;;;;;5085128;27;20589;-62
2022/04/13 11:17:28;;;;;;;4.05;3.38;;;21.20;47.30;;;;;;5084921;27;20565;-62
2022/04/13 11:20:23;;;;;;;3.80;3.50;;;21.40;45.70;;;;;;5105088;27;20538;-62
2022/04/13 11:23:13;;;;;;;3.85;3.10;;;21.50;43.80;;;;;;5079892;27;20541;-62
2022/04/13 11:25:58;;;;;;;2.80;2.60;;;21.50;44.60;;;;;;5082025;27;20597;-62
2022/04/13 11:28:37;;;;;;;3.28;2.92;;;21.50;43.60;;;;;;5101745;27;20630;-63
2022/04/13 11:31:17;;;;;;;3.00;2.70;;;21.60;43.10;;;;;;5081385;27;21149;-64
2022/04/13 11:33:58;;;;;;;3.38;3.08;;;21.60;43.00;;;;;;5080405;27;20994;-63
2022/04/13 11:36:51;;;;;;;3.25;2.53;;;21.60;42.30;;;;;;5082906;27;20589;-65
2022/04/13 11:39:46;;;;;;;2.85;2.50;;;21.70;42.50;;;;;;5103089;27;20595;-65
2022/04/13 11:42:53;;;;;;;3.97;2.50;;;21.60;43.80;;;;;;5076021;27;21060;-63
2022/04/13 11:45:33;;;;;;;2.72;2.30;;;21.50;43.70;;;;;;5067145;27;20583;-64
2022/04/13 11:48:33;;;;;;;3.28;2.97;;;21.60;43.40;;;;;;5083016;27;20569;-65
2022/04/13 11:51:29;;;;;;;3.05;2.33;;;21.60;44.00;;;;;;5123833;27;20924;-64
2022/04/13 11:54:10;;;;;;;13.27;2.40;;;21.80;43.20;;;;;;5097735;27;20997;-63
2022/04/13 11:56:54;;;;;;;4.25;2.50;;;22.00;45.80;;;;;;5100888;27;20628;-65
2022/04/13 11:59:50;;;;;;;2.70;2.50;;;22.00;41.10;;;;;;5077470;27;20585;-63
2022/04/13 12:02:29;;;;;;;2.65;2.42;;;21.90;41.90;;;;;;5103218;27;20583;-63
2022/04/13 12:05:14;;;;;;;2.83;2.00;;;21.90;40.90;;;;;;5070374;27;21313;-63
2022/04/13 12:07:54;;;;;;;2.72;2.03;;;21.90;40.30;;;;;;5084186;27;20590;-64
2022/04/13 12:10:38;;;;;;;3.17;2.03;;;21.90;40.10;;;;;;5081799;27;20616;-65
2022/04/13 12:13:17;;;;;;;3.17;2.22;;;21.90;40.60;;;;;;5075778;27;20585;-64
2022/04/13 12:15:57;;;;;;;3.00;2.50;;;22.20;40.70;;;;;;5063485;27;20995;-64
2022/04/13 12:18:37;;;;;;;3.05;2.38;;;22.40;40.50;;;;;;5084041;27;20579;-64
2022/04/13 12:21:21;;;;;;;2.33;2.10;;;22.50;40.70;;;;;;5080696;27;20569;-64
2022/04/13 12:24:02;;;;;;;2.92;2.60;;;22.60;41.20;;;;;;5107677;27;21038;-63
2022/04/13 12:26:44;;;;;;;3.10;2.10;;;22.70;41.50;;;;;;5080850;27;20636;-64
2022/04/13 12:29:24;;;;;;;3.58;2.90;;;22.90;41.10;;;;;;5100557;27;20591;-63
2022/04/13 12:32:05;;;;;;;2.40;2.20;;;22.90;39.30;;;;;;5078969;27;21002;-64
2022/04/13 12:34:44;;;;;;;2.78;2.35;;;22.90;39.80;;;;;;5074237;27;20587;-63
2022/04/13 12:37:24;;;;;;;2.30;2.10;;;23.10;40.70;;;;;;5078514;27;20624;-64
2022/04/13 12:40:23;;;;;;;2.70;2.20;;;23.20;39.60;;;;;;5099507;27;20580;-63
2022/04/13 12:43:09;;;;;;;4.63;2.85;;;23.10;40.10;;;;;;5071350;27;20591;-65
2022/04/13 12:45:49;;;;;;;2.40;2.20;;;23.30;38.80;;;;;;5079169;27;21001;-63
2022/04/13 12:48:29;;;;;;;3.20;2.50;;;23.30;38.00;;;;;;5077337;27;20601;-64
2022/04/13 12:51:09;;;;;;;2.15;1.90;;;23.10;38.10;;;;;;5079014;27;20587;-63
2022/04/13 12:53:51;;;;;;;2.15;1.70;;;23.10;38.20;;;;;;5068746;27;20598;-64
2022/04/13 12:56:35;;;;;;;1.60;1.50;;;23.10;38.20;;;;;;5079147;27;20589;-64
2022/04/13 12:59:20;;;;;;;2.72;1.85;;;23.10;37.70;;;;;;5082018;27;20585;-64
2022/04/13 13:01:59;;;;;;;3.35;1.30;;;23.20;37.60;;;;;;5077633;27;20983;-61
2022/04/13 13:04:43;;;;;;;3.00;1.45;;;23.50;36.20;;;;;;5082419;27;20994;-63
2022/04/13 13:07:32;;;;;;;2.53;1.85;;;23.60;36.20;;;;;;5103246;27;20579;-64
2022/04/13 13:10:11;;;;;;;2.03;1.55;;;23.60;36.10;;;;;;5083207;27;20569;-63
2022/04/13 13:13:13;;;;;;;1.30;1.20;;;23.80;38.60;;;;;;5082780;27;20576;-63
2022/04/13 13:15:53;;;;;;;1.70;1.42;;;23.90;37.30;;;;;;5102096;27;20636;-64
2022/04/13 13:18:34;;;;;;;2.63;1.60;;;23.80;37.40;;;;;;5083574;27;20573;-63
2022/04/13 13:21:13;;;;;;;1.60;1.50;;;23.70;36.30;;;;;;5081051;27;20573;-64
2022/04/13 13:23:53;;;;;;;1.70;1.60;;;23.80;38.20;;;;;;5105919;27;20671;-63
2022/04/13 13:26:33;;;;;;;1.92;1.75;;;23.60;38.80;;;;;;5081154;27;20585;-63
2022/04/13 13:29:13;;;;;;;1.40;1.30;;;23.50;37.80;;;;;;5112329;27;20616;-63
2022/04/13 13:31:52;;;;;;;3.13;1.30;;;23.70;38.30;;;;;;5099273;27;20636;-63
2022/04/13 13:34:33;;;;;;;2.05;1.52;;;23.70;38.60;;;;;;5071954;27;20618;-63
2022/04/13 13:37:12;;;;;;;1.42;1.33;;;23.80;40.10;;;;;;5097492;27;20583;-63
2022/04/13 13:39:52;;;;;;;1.40;1.30;;;23.60;40.10;;;;;;5123290;27;20593;-64
2022/04/13 13:42:43;;;;;;;2.00;1.80;;;23.30;40.80;;;;;;5103247;27;20575;-63
2022/04/13 13:45:23;;;;;;;1.70;1.60;;;23.30;37.70;;;;;;5069101;27;20603;-63
2022/04/13 13:48:04;;;;;;;1.80;1.70;;;23.30;39.60;;;;;;5082170;27;20801;-63
2022/04/13 13:50:45;;;;;;;3.72;1.88;;;23.30;41.00;;;;;;5078914;27;20560;-63
2022/04/13 13:53:27;;;;;;;2.08;1.58;;;23.20;41.00;;;;;;5078188;27;21157;-63
2022/04/13 13:56:07;;;;;;;2.75;1.48;;;23.10;43.10;;;;;;5102970;27;20572;-64
2022/04/13 13:58:47;;;;;;;4.05;1.60;;;23.20;42.60;;;;;;5082553;27;20573;-63
2022/04/13 14:01:27;;;;;;;3.13;1.70;;;23.50;42.40;;;;;;5084143;27;20609;-63
2022/04/13 14:04:07;;;;;;;2.22;1.85;;;23.40;41.90;;;;;;5099233;27;21197;-63
2022/04/13 14:06:46;;;;;;;1.60;1.50;;;23.20;42.30;;;;;;5084202;27;20573;-63